Wind From: 11-12-2017 06:00 Until: 12-12-2017 06:00 warning for: Wind Level: Orange info button

Power and phone distribution networks may be disrupted for relatively long periods., Roofs and chimneys can be damaged. , Tree branches may break. , Vehicles can be deported. , Traffic may be disrupted, particularly on secondary roads in forest areas. Limit your trips. , Limit your speed in highway driving, especially if you drive a vehicle or hitch sensitive to wind. , Do not go for walks in forests or along the coast., In town, be vigilant against possible falling objects., Do not work on roofs and do not touch any electrical line fallen on the ground., Store or secure sensitive objects to wind or likely to be damaged., Always install power generators outside buildings. 


Meteo18 Weather Cam more information Meteo18 Weather Cam


Thunder radar more information blitzortung!


Rain radar more information rain snow radar


Visit our other weather sites:

Template documentation
and downloads

And another site



Weather Underground History page Text

Daily Summary for April 3, 2016 Units:  Metric    English   Both
« Previous Day
Next Day »
Daily Weekly Monthly Yearly Custom
  High: Low: Average:
Temperature: 21.2 °C 7.9 °C 12.5 °C
Dew Point: 15.2 °C 7.1 °C 10.6 °C
Humidity: 98 % 57 % 89 %
Wind Speed: 9.7 km/h 0.0 km/h 0.8 km/h
Wind Gust: 22.5 km/h - -
Wind:- - SSW
Pressure: 1010.0 hPa 1003.9 hPa -
Precipitation: 4.6 mm    
Historical Graphs
 
 
Tabular Data for April 3, 2016
Time Temperature Dew Point Pressure Wind Wind Speed Wind Gust Humidity Rainfall Rate (Hourly)
00:02 9.9 °C 9.4 °C 1010.0 hPa Calm   1.6 km/h 97 % 0.0 mm
00:07 9.8 °C 9.3 °C 1010.0 hPa Calm   1.6 km/h 97 % 0.0 mm
00:12 9.9 °C 9.4 °C 1010.0 hPa Calm   1.6 km/h 97 % 0.0 mm
00:17 9.9 °C 9.4 °C 1010.0 hPa Calm   1.6 km/h 97 % 0.0 mm
00:22 9.8 °C 9.3 °C 1010.0 hPa Calm   1.6 km/h 97 % 0.0 mm
00:32 9.8 °C 9.3 °C 1010.0 hPa Calm     97 % 0.3 mm
00:37 9.8 °C 9.3 °C 1010.0 hPa Calm     97 % 0.3 mm
00:42 9.9 °C 9.4 °C 1010.0 hPa Calm     97 % 0.3 mm
00:47 10.1 °C 9.6 °C 1010.0 hPa Calm   3.2 km/h 97 % 0.3 mm
00:52 10.1 °C 9.6 °C 1009.7 hPa Calm   3.2 km/h 97 % 0.3 mm
00:57 10.1 °C 9.6 °C 1010.0 hPa Calm   3.2 km/h 97 % 0.3 mm
01:02 10.2 °C 9.7 °C 1010.0 hPa Calm   3.2 km/h 97 % 0.3 mm
01:07 10.3 °C 9.8 °C 1010.0 hPa Calm   3.2 km/h 97 % 0.3 mm
01:12 10.3 °C 9.8 °C 1010.0 hPa Calm   3.2 km/h 97 % 0.3 mm
01:17 10.3 °C 9.8 °C 1010.0 hPa Calm   1.6 km/h 97 % 0.3 mm
01:22 10.3 °C 9.8 °C 1010.0 hPa Calm   1.6 km/h 97 % 0.3 mm
01:27 10.3 °C 9.8 °C 1010.0 hPa Calm   1.6 km/h 97 % 0.3 mm
01:32 10.3 °C 9.8 °C 1010.0 hPa Calm   3.2 km/h 97 % 0.0 mm
01:37 10.3 °C 9.8 °C 1010.0 hPa Calm   3.2 km/h 97 % 0.0 mm
01:42 10.4 °C 9.9 °C 1010.0 hPa Calm   3.2 km/h 97 % 0.0 mm
01:47 10.4 °C 9.9 °C 1010.0 hPa Calm   4.8 km/h 97 % 0.0 mm
01:52 10.4 °C 9.8 °C 1010.0 hPa Calm   4.8 km/h 96 % 0.0 mm
02:02 10.4 °C 9.8 °C 1010.0 hPa Calm   1.6 km/h 96 % 0.0 mm
02:07 10.4 °C 9.8 °C 1010.0 hPa Calm   1.6 km/h 96 % 0.0 mm
02:12 10.4 °C 9.8 °C 1010.0 hPa Calm   1.6 km/h 96 % 0.0 mm
02:17 10.4 °C 9.8 °C 1010.0 hPa Calm   1.6 km/h 96 % 0.0 mm
02:22 10.3 °C 9.7 °C 1010.0 hPa Calm   1.6 km/h 96 % 0.0 mm
02:27 10.3 °C 9.7 °C 1010.0 hPa Calm     96 % 0.0 mm
02:32 10.2 °C 9.6 °C 1010.0 hPa Calm     96 % 0.0 mm
02:37 10.1 °C 9.5 °C 1010.0 hPa Calm     96 % 0.0 mm
02:42 10.1 °C 9.5 °C 1010.0 hPa Calm     96 % 0.0 mm
02:47 10.1 °C 9.5 °C 1010.0 hPa Calm     96 % 0.0 mm
02:52 10.1 °C 9.5 °C 1009.7 hPa Calm     96 % 0.0 mm
02:57 10.1 °C 9.5 °C 1010.0 hPa Calm     96 % 0.0 mm
03:02 10.1 °C 9.5 °C 1010.0 hPa Calm     96 % 0.0 mm
03:07 10.0 °C 9.4 °C 1010.0 hPa Calm     96 % 0.0 mm
03:12 9.9 °C 9.3 °C 1009.7 hPa Calm     96 % 0.0 mm
03:17 10.0 °C 9.4 °C 1009.7 hPa Calm     96 % 0.0 mm
03:22 10.0 °C 9.4 °C 1009.7 hPa Calm     96 % 0.0 mm
03:32 9.9 °C 9.3 °C 1009.7 hPa Calm     96 % 0.0 mm
03:37 9.7 °C 9.1 °C 1009.4 hPa Calm     96 % 0.0 mm
03:42 9.6 °C 9.0 °C 1009.7 hPa Calm     96 % 0.0 mm
03:52 9.6 °C 9.1 °C 1009.7 hPa Calm   1.6 km/h 97 % 0.0 mm
03:57 9.4 °C 8.8 °C 1009.4 hPa Calm   1.6 km/h 96 % 0.0 mm
04:02 9.2 °C 8.6 °C 1009.4 hPa Calm   1.6 km/h 96 % 0.0 mm
04:12 9.1 °C 8.6 °C 1009.4 hPa Calm     97 % 0.0 mm
04:17 9.0 °C 8.5 °C 1009.4 hPa Calm     97 % 0.0 mm
04:22 8.9 °C 8.4 °C 1009.4 hPa Calm     97 % 0.0 mm
04:27 8.8 °C 8.2 °C 1009.4 hPa Calm     96 % 0.0 mm
04:32 8.7 °C 8.1 °C 1009.4 hPa Calm     96 % 0.0 mm
04:37 8.6 °C 8.2 °C 1009.4 hPa Calm     97 % 0.0 mm
04:42 8.7 °C 8.3 °C 1009.4 hPa Calm     97 % 0.0 mm
04:47 8.7 °C 8.3 °C 1009.4 hPa Calm     97 % 0.0 mm
04:52 8.8 °C 8.3 °C 1009.4 hPa Calm   1.6 km/h 97 % 0.0 mm
04:57 8.8 °C 8.3 °C 1009.4 hPa Calm   1.6 km/h 97 % 0.0 mm
05:02 8.9 °C 8.4 °C 1009.4 hPa Calm     97 % 0.0 mm
05:07 8.9 °C 8.4 °C 1009.4 hPa Calm     97 % 0.0 mm
05:12 8.9 °C 8.4 °C 1009.4 hPa Calm     97 % 0.0 mm
05:17 9.0 °C 8.5 °C 1009.4 hPa Calm     97 % 0.0 mm
05:22 9.1 °C 8.6 °C 1009.4 hPa Calm     97 % 0.0 mm
05:27 9.1 °C 8.6 °C 1009.4 hPa Calm     97 % 0.0 mm
05:32 9.0 °C 8.5 °C 1009.4 hPa Calm     97 % 0.0 mm
05:37 8.9 °C 8.4 °C 1009.4 hPa Calm     97 % 0.0 mm
05:42 8.8 °C 8.3 °C 1009.4 hPa Calm     97 % 0.0 mm
05:47 8.9 °C 8.4 °C 1009.4 hPa Calm     97 % 0.0 mm
05:52 8.9 °C 8.4 °C 1009.4 hPa Calm     97 % 0.0 mm
05:57 8.8 °C 8.3 °C 1009.4 hPa Calm     97 % 0.0 mm
06:02 8.8 °C 8.3 °C 1009.4 hPa Calm     97 % 0.0 mm
06:07 8.9 °C 8.4 °C 1009.4 hPa Calm     97 % 0.0 mm
06:12 9.0 °C 8.7 °C 1009.4 hPa Calm     98 % 0.0 mm
06:17 9.1 °C 8.8 °C 1009.4 hPa Calm     98 % 0.0 mm
06:22 9.1 °C 8.6 °C 1009.4 hPa Calm     97 % 0.0 mm
06:27 9.1 °C 8.6 °C 1009.4 hPa Calm     97 % 0.0 mm
06:32 9.1 °C 8.6 °C 1009.4 hPa Calm     97 % 0.0 mm
06:42 9.1 °C 8.6 °C 1009.4 hPa Calm     97 % 0.0 mm
06:47 9.0 °C 8.5 °C 1009.4 hPa Calm     97 % 0.0 mm
06:57 8.8 °C 8.3 °C 1009.4 hPa Calm     97 % 0.0 mm
07:02 8.7 °C 8.3 °C 1009.4 hPa Calm     97 % 0.0 mm
07:07 8.6 °C 8.2 °C 1009.4 hPa Calm     97 % 0.0 mm
07:12 8.5 °C 8.1 °C 1009.4 hPa Calm     97 % 0.0 mm
07:17 8.4 °C 8.0 °C 1009.4 hPa Calm     97 % 0.0 mm
07:22 8.3 °C 7.9 °C 1009.4 hPa Calm     97 % 0.0 mm
07:27 8.2 °C 7.8 °C 1009.4 hPa Calm     97 % 0.0 mm
07:32 8.2 °C 7.8 °C 1009.4 hPa Calm     97 % 0.0 mm
07:37 8.2 °C 7.8 °C 1009.4 hPa Calm     97 % 0.0 mm
07:42 8.2 °C 7.9 °C 1009.4 hPa Calm     98 % 0.0 mm
07:47 8.2 °C 7.9 °C 1009.4 hPa Calm     98 % 0.0 mm
07:52 8.1 °C 7.7 °C 1009.4 hPa Calm     97 % 0.0 mm
07:57 8.0 °C 7.6 °C 1009.4 hPa Calm     97 % 0.0 mm
08:02 7.9 °C 7.5 °C 1009.4 hPa Calm     97 % 0.0 mm
08:07 8.0 °C 7.7 °C 1009.4 hPa Calm     98 % 0.0 mm
08:12 8.0 °C 7.7 °C 1009.4 hPa Calm     98 % 0.0 mm
08:17 7.9 °C 7.6 °C 1009.4 hPa Calm     98 % 0.0 mm
08:22 8.0 °C 7.7 °C 1009.4 hPa Calm     98 % 0.0 mm
08:32 8.2 °C 7.9 °C 1009.4 hPa Calm     98 % 0.0 mm
08:37 8.3 °C 8.0 °C 1009.4 hPa Calm     98 % 0.0 mm
08:42 8.5 °C 8.2 °C 1009.4 hPa Calm     98 % 0.0 mm
08:47 8.8 °C 8.5 °C 1009.4 hPa Calm     98 % 0.0 mm
08:52 9.1 °C 8.8 °C 1009.4 hPa Calm     98 % 0.0 mm
08:57 9.3 °C 9.0 °C 1009.4 hPa Calm     98 % 0.0 mm
09:02 9.4 °C 9.1 °C 1009.4 hPa Calm     98 % 0.0 mm
09:07 9.7 °C 9.4 °C 1009.4 hPa Calm     98 % 0.0 mm
09:12 9.9 °C 9.6 °C 1009.4 hPa Calm     98 % 0.0 mm
09:17 10.1 °C 9.8 °C 1009.4 hPa Calm     98 % 0.0 mm
09:22 10.3 °C 10.0 °C 1009.4 hPa Calm     98 % 0.0 mm
09:32 10.7 °C 10.4 °C 1009.4 hPa Calm     98 % 0.0 mm
09:37 10.7 °C 10.4 °C 1009.7 hPa Calm     98 % 0.0 mm
09:42 10.7 °C 10.4 °C 1009.7 hPa Calm     98 % 0.0 mm
09:47 10.9 °C 10.6 °C 1009.4 hPa Calm     98 % 0.0 mm
09:52 10.9 °C 10.6 °C 1009.4 hPa Calm     98 % 0.0 mm
09:57 10.9 °C 10.6 °C 1009.4 hPa Calm     98 % 0.0 mm
10:02 11.4 °C 11.1 °C 1009.7 hPa Calm     98 % 0.0 mm
10:07 12.0 °C 11.7 °C 1009.4 hPa Calm     98 % 0.0 mm
10:12 12.4 °C 12.1 °C 1009.4 hPa Calm     98 % 0.0 mm
10:17 12.7 °C 12.2 °C 1009.4 hPa Calm   1.6 km/h 97 % 0.0 mm
10:22 13.1 °C 12.2 °C 1009.4 hPa Calm   4.8 km/h 94 % 0.0 mm
10:27 13.7 °C 12.4 °C 1009.4 hPa East 1.6 km/h 4.8 km/h 92 % 0.0 mm
10:32 14.2 °C 12.6 °C 1009.4 hPa Calm   4.8 km/h 90 % 0.0 mm
10:37 14.7 °C 12.6 °C 1009.4 hPa NW 3.2 km/h 3.2 km/h 87 % 0.0 mm
10:42 14.9 °C 12.4 °C 1009.4 hPa Calm   6.4 km/h 85 % 0.0 mm
10:47 15.3 °C 12.8 °C 1009.4 hPa NNW 3.2 km/h 8.0 km/h 85 % 0.0 mm
10:52 15.6 °C 12.5 °C 1009.4 hPa WSW 1.6 km/h 8.0 km/h 82 % 0.0 mm
10:57 16.0 °C 13.3 °C 1009.4 hPa WSW 1.6 km/h 8.0 km/h 84 % 0.0 mm
11:02 16.2 °C 12.7 °C 1009.4 hPa Calm   8.0 km/h 80 % 0.0 mm
11:12 16.9 °C 14.0 °C 1009.0 hPa Calm   6.4 km/h 83 % 0.0 mm
11:17 17.3 °C 13.6 °C 1009.0 hPa Calm   6.4 km/h 79 % 0.0 mm
11:22 17.7 °C 13.6 °C 1009.0 hPa Calm   6.4 km/h 77 % 0.0 mm
11:27 17.9 °C 13.8 °C 1009.0 hPa Calm   6.4 km/h 77 % 0.0 mm
11:32 18.1 °C 14.0 °C 1009.0 hPa West 3.2 km/h 6.4 km/h 77 % 0.0 mm
11:37 18.0 °C 13.7 °C 1009.0 hPa WSW 4.8 km/h 6.4 km/h 76 % 0.0 mm
11:42 18.1 °C 14.0 °C 1008.7 hPa Calm   9.7 km/h 77 % 0.0 mm
11:47 18.3 °C 13.8 °C 1008.7 hPa SW 1.6 km/h 9.7 km/h 75 % 0.0 mm
11:52 18.5 °C 13.8 °C 1008.7 hPa NW 1.6 km/h 8.0 km/h 74 % 0.0 mm
11:57 18.8 °C 14.3 °C 1008.7 hPa SW 3.2 km/h 6.4 km/h 75 % 0.0 mm
12:02 19.0 °C 14.3 °C 1008.7 hPa NW 3.2 km/h 4.8 km/h 74 % 0.0 mm
12:07 19.1 °C 13.7 °C 1008.7 hPa NE 3.2 km/h 4.8 km/h 71 % 0.0 mm
12:12 18.9 °C 14.2 °C 1008.7 hPa West 1.6 km/h 9.7 km/h 74 % 0.0 mm
12:17 19.1 °C 13.9 °C 1008.4 hPa West 8.0 km/h 9.7 km/h 72 % 0.0 mm
12:22 19.3 °C 14.8 °C 1008.4 hPa ESE 1.6 km/h 12.9 km/h 75 % 0.0 mm
12:27 19.6 °C 14.2 °C 1008.4 hPa WSW 3.2 km/h 12.9 km/h 71 % 0.0 mm
12:32 19.7 °C 14.3 °C 1008.4 hPa NW 1.6 km/h 12.9 km/h 71 % 0.0 mm
12:37 19.4 °C 14.0 °C 1008.4 hPa NW 9.7 km/h 9.7 km/h 71 % 0.0 mm
12:47 19.2 °C 14.2 °C 1008.0 hPa Calm   14.5 km/h 73 % 0.0 mm
12:52 19.8 °C 15.2 °C 1008.0 hPa NW 4.8 km/h 14.5 km/h 75 % 0.0 mm
12:57 19.7 °C 14.1 °C 1008.0 hPa Calm   9.7 km/h 70 % 0.0 mm
13:02 19.9 °C 14.7 °C 1008.0 hPa WSW 6.4 km/h 9.7 km/h 72 % 0.0 mm
13:07 20.2 °C 15.2 °C 1008.0 hPa West 1.6 km/h 9.7 km/h 73 % 0.0 mm
13:12 20.6 °C 14.3 °C 1007.7 hPa WNW 1.6 km/h 12.9 km/h 67 % 0.0 mm
13:17 20.6 °C 14.5 °C 1007.7 hPa WNW 8.0 km/h 12.9 km/h 68 % 0.0 mm
13:22 20.7 °C 14.1 °C 1007.7 hPa SSE 3.2 km/h 11.3 km/h 66 % 0.0 mm
13:27 20.9 °C 15.2 °C 1007.7 hPa WSW 8.0 km/h 12.9 km/h 70 % 0.0 mm
13:32 21.1 °C 14.5 °C 1007.7 hPa SW 3.2 km/h 12.9 km/h 66 % 0.0 mm
13:37 21.2 °C 13.9 °C 1007.3 hPa WNW 3.2 km/h 11.3 km/h 63 % 0.0 mm
13:42 20.2 °C 13.9 °C 1007.3 hPa WNW 1.6 km/h 11.3 km/h 67 % 0.0 mm
13:47 20.2 °C 14.1 °C 1007.3 hPa WNW 3.2 km/h 11.3 km/h 68 % 0.0 mm
13:52 20.3 °C 14.2 °C 1007.3 hPa WSW 3.2 km/h 11.3 km/h 68 % 0.0 mm
13:57 20.8 °C 13.7 °C 1007.3 hPa WSW 6.4 km/h 8.0 km/h 64 % 0.0 mm
14:02 21.1 °C 13.3 °C 1007.0 hPa West 8.0 km/h 12.9 km/h 61 % 0.0 mm
14:07 20.9 °C 13.3 °C 1007.3 hPa West 3.2 km/h 12.9 km/h 62 % 0.0 mm
14:12 20.7 °C 13.4 °C 1007.0 hPa SW 3.2 km/h 12.9 km/h 63 % 0.0 mm
14:17 20.2 °C 12.7 °C 1007.0 hPa WSW 1.6 km/h 12.9 km/h 62 % 0.0 mm
14:22 20.2 °C 11.4 °C 1007.0 hPa WSW 4.8 km/h 9.7 km/h 57 % 0.0 mm
14:27 20.3 °C 12.5 °C 1006.7 hPa WNW 1.6 km/h 9.7 km/h 61 % 0.0 mm
14:32 20.2 °C 12.9 °C 1006.7 hPa West 1.6 km/h 8.0 km/h 63 % 0.0 mm
14:37 20.7 °C 13.2 °C 1006.7 hPa SW 6.4 km/h 8.0 km/h 62 % 0.0 mm
14:42 20.4 °C 12.4 °C 1006.7 hPa West 1.6 km/h 8.0 km/h 60 % 0.0 mm
14:47 20.2 °C 13.4 °C 1006.7 hPa Calm   8.0 km/h 65 % 0.0 mm
14:52 20.0 °C 13.5 °C 1006.7 hPa Calm   8.0 km/h 66 % 0.0 mm
14:57 19.8 °C 12.3 °C 1006.3 hPa West 3.2 km/h 8.0 km/h 62 % 0.0 mm
15:02 19.4 °C 12.9 °C 1006.3 hPa SW 1.6 km/h 6.4 km/h 66 % 0.0 mm
15:07 19.1 °C 12.8 °C 1006.3 hPa West 1.6 km/h 4.8 km/h 67 % 0.0 mm
15:12 19.1 °C 13.5 °C 1006.3 hPa Calm   4.8 km/h 70 % 0.0 mm
15:17 19.2 °C 12.9 °C 1006.3 hPa Calm   3.2 km/h 67 % 0.0 mm
15:22 19.2 °C 13.4 °C 1006.3 hPa West 1.6 km/h 3.2 km/h 69 % 0.0 mm
15:27 19.1 °C 13.7 °C 1006.3 hPa Calm   1.6 km/h 71 % 0.0 mm
15:32 18.8 °C 13.9 °C 1006.3 hPa NW 4.8 km/h 4.8 km/h 73 % 0.0 mm
15:37 17.8 °C 12.3 °C 1006.3 hPa NE 3.2 km/h 4.8 km/h 70 % 0.0 mm
15:42 16.6 °C 12.1 °C 1006.3 hPa NNW 4.8 km/h 22.5 km/h 75 % 0.0 mm
15:47 15.7 °C 11.5 °C 1006.3 hPa Calm   22.5 km/h 76 % 0.0 mm
15:52 15.4 °C 12.2 °C 1006.0 hPa Calm   12.9 km/h 81 % 0.0 mm
15:57 15.1 °C 11.7 °C 1006.3 hPa Calm   9.7 km/h 80 % 0.3 mm
16:02 14.8 °C 11.8 °C 1006.0 hPa Calm   8.0 km/h 82 % 0.3 mm
16:07 14.6 °C 11.9 °C 1005.6 hPa Calm   6.4 km/h 84 % 0.5 mm
16:12 14.7 °C 12.4 °C 1006.0 hPa WSW 3.2 km/h 6.4 km/h 86 % 0.5 mm
16:17 14.4 °C 11.9 °C 1006.0 hPa Calm   4.8 km/h 85 % 0.5 mm
16:22 14.3 °C 11.8 °C 1006.0 hPa Calm   4.8 km/h 85 % 0.5 mm
16:32 13.9 °C 11.8 °C 1006.0 hPa Calm   1.6 km/h 87 % 1.3 mm
16:37 13.5 °C 11.7 °C 1005.6 hPa Calm   1.6 km/h 89 % 3.0 mm
16:42 13.3 °C 11.7 °C 1005.6 hPa Calm   4.8 km/h 90 % 3.8 mm
16:47 13.3 °C 11.7 °C 1005.6 hPa Calm   4.8 km/h 90 % 3.8 mm
16:52 13.4 °C 11.8 °C 1006.0 hPa Calm   4.8 km/h 90 % 3.6 mm
16:57 13.4 °C 11.8 °C 1006.0 hPa SSW 1.6 km/h 4.8 km/h 90 % 3.6 mm
17:12 13.3 °C 12.0 °C 1005.3 hPa Calm   4.8 km/h 92 % 3.6 mm
17:22 14.0 °C 12.9 °C 1005.6 hPa West 1.6 km/h 3.2 km/h 93 % 3.8 mm
17:27 14.1 °C 12.7 °C 1005.6 hPa North 1.6 km/h 3.2 km/h 91 % 3.6 mm
17:32 14.3 °C 12.9 °C 1005.3 hPa Calm   3.2 km/h 91 % 2.5 mm
17:37 14.4 °C 12.9 °C 1005.3 hPa Calm   3.2 km/h 91 % 0.8 mm
17:42 14.5 °C 13.0 °C 1005.3 hPa Calm   3.2 km/h 91 % 0.5 mm
17:47 14.5 °C 13.0 °C 1005.0 hPa Calm   1.6 km/h 91 % 0.5 mm
17:52 14.4 °C 12.9 °C 1005.0 hPa Calm   3.2 km/h 91 % 0.5 mm
17:57 14.4 °C 12.9 °C 1005.0 hPa Calm   4.8 km/h 91 % 0.5 mm
18:02 14.2 °C 12.8 °C 1005.0 hPa NE 4.8 km/h 6.4 km/h 91 % 0.5 mm
18:07 14.1 °C 12.8 °C 1005.0 hPa Calm   6.4 km/h 92 % 0.3 mm
18:12 14.1 °C 12.8 °C 1005.0 hPa Calm   4.8 km/h 92 % 0.3 mm
18:17 14.1 °C 12.8 °C 1005.0 hPa Calm   4.8 km/h 92 % 0.0 mm
18:22 14.2 °C 12.9 °C 1005.0 hPa Calm   1.6 km/h 92 % 0.0 mm
18:27 14.2 °C 12.9 °C 1004.6 hPa Calm   1.6 km/h 92 % 0.0 mm
18:32 14.0 °C 12.6 °C 1004.6 hPa Calm   1.6 km/h 91 % 0.0 mm
18:42 13.8 °C 12.5 °C 1004.6 hPa Calm   4.8 km/h 92 % 0.0 mm
18:47 13.7 °C 12.6 °C 1004.6 hPa Calm   4.8 km/h 93 % 0.0 mm
18:52 13.6 °C 12.3 °C 1004.6 hPa NNE 3.2 km/h 6.4 km/h 92 % 0.0 mm
18:57 13.4 °C 12.1 °C 1004.6 hPa Calm   6.4 km/h 92 % 0.0 mm
19:02 13.3 °C 12.0 °C 1004.6 hPa NNE 1.6 km/h 6.4 km/h 92 % 0.0 mm
19:07 13.2 °C 12.1 °C 1004.3 hPa North 3.2 km/h 4.8 km/h 93 % 0.0 mm
19:12 13.0 °C 11.9 °C 1003.9 hPa NNE 3.2 km/h 4.8 km/h 93 % 0.0 mm
19:22 12.8 °C 11.7 °C 1003.9 hPa Calm   4.8 km/h 93 % 0.0 mm
19:27 12.8 °C 11.7 °C 1005.0 hPa SW 6.4 km/h 6.4 km/h 93 % 0.0 mm
19:32 12.9 °C 11.8 °C 1005.0 hPa Calm   11.3 km/h 93 % 0.0 mm
19:37 12.9 °C 11.6 °C 1005.0 hPa Calm   11.3 km/h 92 % 0.0 mm
19:42 13.0 °C 11.6 °C 1005.0 hPa Calm   11.3 km/h 91 % 0.0 mm
19:47 13.2 °C 11.6 °C 1005.0 hPa NE 1.6 km/h 4.8 km/h 90 % 0.0 mm
19:52 13.3 °C 11.5 °C 1004.6 hPa Calm   8.0 km/h 89 % 0.0 mm
19:57 13.4 °C 11.3 °C 1005.0 hPa ENE 4.8 km/h 8.0 km/h 87 % 0.0 mm
20:02 13.4 °C 10.9 °C 1004.6 hPa NE 4.8 km/h 6.4 km/h 85 % 0.0 mm
20:07 13.4 °C 10.9 °C 1005.0 hPa NE 1.6 km/h 11.3 km/h 85 % 0.0 mm
20:12 13.3 °C 11.0 °C 1005.0 hPa NE 4.8 km/h 11.3 km/h 86 % 0.0 mm
20:17 13.1 °C 11.0 °C 1005.0 hPa Calm   9.7 km/h 87 % 0.0 mm
20:22 12.8 °C 10.9 °C 1005.0 hPa NE 3.2 km/h 6.4 km/h 88 % 0.0 mm
20:27 12.6 °C 10.8 °C 1005.0 hPa Calm   4.8 km/h 89 % 0.0 mm
20:32 12.3 °C 10.5 °C 1005.0 hPa Calm   4.8 km/h 89 % 0.0 mm
20:42 12.1 °C 10.3 °C 1005.0 hPa NE 1.6 km/h 4.8 km/h 89 % 0.0 mm
20:47 12.1 °C 10.5 °C 1005.3 hPa Calm   4.8 km/h 90 % 0.0 mm
20:52 12.0 °C 10.4 °C 1005.0 hPa Calm   3.2 km/h 90 % 0.0 mm
20:57 11.8 °C 10.2 °C 1005.3 hPa Calm   3.2 km/h 90 % 0.0 mm
21:02 11.5 °C 9.9 °C 1005.3 hPa Calm   1.6 km/h 90 % 0.0 mm
21:07 11.1 °C 9.7 °C 1005.3 hPa Calm     91 % 0.0 mm
21:12 10.8 °C 9.6 °C 1005.3 hPa NE 1.6 km/h 1.6 km/h 92 % 0.0 mm
21:17 10.7 °C 9.3 °C 1005.3 hPa Calm   1.6 km/h 91 % 0.0 mm
21:22 10.6 °C 9.2 °C 1005.6 hPa Calm   4.8 km/h 91 % 0.0 mm
21:27 10.6 °C 9.4 °C 1005.3 hPa NE 1.6 km/h 4.8 km/h 92 % 0.0 mm
21:32 10.6 °C 9.2 °C 1005.3 hPa Calm   3.2 km/h 91 % 0.0 mm
21:37 10.5 °C 9.1 °C 1005.6 hPa Calm   4.8 km/h 91 % 0.0 mm
21:42 10.4 °C 9.0 °C 1005.3 hPa Calm   4.8 km/h 91 % 0.0 mm
21:47 10.2 °C 8.8 °C 1005.3 hPa Calm   3.2 km/h 91 % 0.0 mm
21:52 9.9 °C 8.5 °C 1005.6 hPa Calm   1.6 km/h 91 % 0.0 mm
21:57 9.7 °C 8.5 °C 1005.6 hPa Calm     92 % 0.0 mm
22:02 9.6 °C 8.5 °C 1005.6 hPa Calm     93 % 0.0 mm
22:07 9.6 °C 8.5 °C 1005.6 hPa Calm   1.6 km/h 93 % 0.0 mm
22:12 9.5 °C 8.4 °C 1005.6 hPa Calm   1.6 km/h 93 % 0.0 mm
22:17 9.4 °C 8.5 °C 1005.6 hPa Calm   1.6 km/h 94 % 0.0 mm
22:22 9.4 °C 8.5 °C 1005.6 hPa Calm   1.6 km/h 94 % 0.0 mm
22:27 9.3 °C 8.4 °C 1005.6 hPa Calm     94 % 0.0 mm
22:32 9.2 °C 8.3 °C 1005.6 hPa Calm     94 % 0.0 mm
22:37 9.0 °C 8.1 °C 1005.3 hPa Calm     94 % 0.0 mm
22:42 8.8 °C 7.9 °C 1005.6 hPa Calm     94 % 0.0 mm
22:47 8.8 °C 8.0 °C 1005.6 hPa Calm     95 % 0.0 mm
22:52 8.7 °C 7.9 °C 1005.3 hPa Calm     95 % 0.0 mm
22:57 8.6 °C 7.8 °C 1005.3 hPa Calm     95 % 0.0 mm
23:02 8.5 °C 7.7 °C 1005.3 hPa Calm     95 % 0.0 mm
23:07 8.6 °C 8.0 °C 1005.3 hPa SW 1.6 km/h 1.6 km/h 96 % 0.0 mm
23:12 8.6 °C 7.8 °C 1005.3 hPa Calm   1.6 km/h 95 % 0.0 mm
23:17 8.5 °C 7.7 °C 1005.3 hPa Calm   1.6 km/h 95 % 0.0 mm
23:22 8.4 °C 7.6 °C 1005.6 hPa Calm   1.6 km/h 95 % 0.0 mm
23:27 8.2 °C 7.4 °C 1005.6 hPa Calm   1.6 km/h 95 % 0.0 mm
23:32 8.1 °C 7.3 °C 1005.6 hPa Calm     95 % 0.0 mm
23:37 8.1 °C 7.3 °C 1005.6 hPa Calm     95 % 0.0 mm
23:42 8.0 °C 7.2 °C 1006.0 hPa Calm     95 % 0.0 mm
23:47 7.9 °C 7.1 °C 1006.0 hPa Calm     95 % 0.0 mm
23:52 8.0 °C 7.4 °C 1006.3 hPa Calm   1.6 km/h 96 % 0.0 mm
23:57 8.3 °C 7.9 °C 1006.7 hPa SSW 3.2 km/h 3.2 km/h 97 % 0.0 mm
Meteo18
Compliments of Weather Underground - 4 mb

Script developed by  Jim McMurry - jmcmurry@mwt.net Adapted for the template by  Wim van der Kuil - Leuven-Template.eu

You find our weather info also at:

European Weather Network

Weather Underground

Equipment we use:

Weather-station
Davis Vue

Weather-program
Meteohub

Weather-server
Raspberry PI 2 B+

Provider
1 and 1

Davis Vue

Meteohub

Raspberry PI 2 B+

1 and 1